Time;durP1;ratioP1;P1;durP2;ratioP2;P2;SDS_P1;SDS_P2;PMS_P1;PMS_P2;Temp;Humidity;BMP_temperature;BMP_pressure;BME280_temperature;BME280_humidity;BME280_pressure;Samples;Min_cycle;Max_cycle;Signal;HPM_P1;HPM_P2
2020/12/25 00:00:50;;;;;;;;;;;;;;;-1.61;97.54;92660.06;1066169;55;20173;-83
2020/12/25 00:01:50;;;;;;;;;;;;;;;-1.63;98.15;92670.09;1061968;56;20189;-83
2020/12/25 00:02:51;;;;;;;;;;;;;;;-1.61;98.36;92675.03;1064141;55;20674;-83
2020/12/25 00:03:52;;;;;;;;;;;;;;;-1.60;99.00;92672.03;1066134;55;20169;-83
2020/12/25 00:04:52;;;;;;;;;;;;;;;-1.67;98.26;92665.91;1064025;55;21139;-84
2020/12/25 00:05:53;;;;;;;;;;;;;;;-1.56;98.77;92670.25;1061808;56;20186;-83
2020/12/25 00:06:55;;;;;;;;;;;;;;;-1.57;97.89;92673.97;1063994;55;20157;-81
2020/12/25 00:07:55;;;;;;;;;;;;;;;-1.53;98.24;92676.66;1066153;55;20157;-80
2020/12/25 00:08:56;;;;;;;;;;;;;;;-1.47;97.95;92679.72;1065999;55;20181;-81
2020/12/25 00:09:56;;;;;;;;;;;;;;;-1.53;97.66;92677.41;1065990;55;20579;-81
2020/12/25 00:10:58;;;;;;;;;;;;;;;-1.55;97.04;92679.59;1063861;55;20154;-82
2020/12/25 00:11:59;;;;;;;;;;;;;;;-1.54;96.94;92678.53;1061754;56;20174;-84
2020/12/25 00:12:59;;;;;;;;;;;;;;;-1.46;98.14;92678.63;1066212;55;21095;-84
2020/12/25 00:14:00;;;;;;;;;;;;;;;-1.52;97.94;92684.16;1063884;55;20262;-82
2020/12/25 00:15:00;;;;;;;;;;;;;;;-1.45;97.81;92675.63;1063970;55;20638;-82
2020/12/25 00:16:01;;;;;;;;;;;;;;;-1.51;97.24;92679.66;1066258;55;20169;-84
2020/12/25 00:17:02;;;;;;;;;;;;;;;-1.46;98.10;92678.63;1061943;56;20709;-82
2020/12/25 00:18:02;;;;;;;;;;;;;;;-1.44;98.15;92686.91;1059663;56;20185;-82
2020/12/25 00:19:03;;;;;;;;;;;;;;;-1.52;98.31;92686.78;1061808;56;20158;-83
2020/12/25 00:20:06;;;;;;;;;;;;;;;-1.49;98.47;92679.31;1061794;56;20170;-83
2020/12/25 00:21:06;;;;;;;;;;;;;;;-1.43;98.44;92683.91;1061969;55;20190;-82
2020/12/25 00:22:07;;;;;;;;;;;;;;;-1.46;97.86;92676.00;1063796;55;20170;-83
2020/12/25 00:23:07;;;;;;;;;;;;;;;-1.49;96.65;92682.72;1063897;55;20185;-83
2020/12/25 00:24:09;;;;;;;;;;;;;;;-1.52;96.27;92686.78;1063903;55;20685;-82
2020/12/25 00:25:09;;;;;;;;;;;;;;;-1.50;96.01;92693.53;1061565;56;20612;-83
2020/12/25 00:26:10;;;;;;;;;;;;;;;-1.50;96.67;92696.16;1059513;56;20181;-83
2020/12/25 00:27:10;;;;;;;;;;;;;;;-1.53;97.01;92695.00;1061653;56;20347;-81
2020/12/25 00:28:13;;;;;;;;;;;;;;;-1.55;95.80;92705.81;1066143;55;20165;-85
2020/12/25 00:29:13;;;;;;;;;;;;;;;-1.48;96.09;92694.69;1063780;55;20154;-81
2020/12/25 00:30:14;;;;;;;;;;;;;;;-1.57;95.97;92692.31;1061657;56;20173;-82
2020/12/25 00:31:30;;;;;;;;;;;;;;;-1.57;97.70;92686.31;1066009;55;20176;-83
2020/12/25 00:32:31;;;;;;;;;;;;;;;-1.57;98.00;92692.31;1063886;55;20273;-83
2020/12/25 00:33:31;;;;;;;;;;;;;;;-1.53;97.96;92695.00;1063861;55;20196;-83
2020/12/25 00:34:32;;;;;;;;;;;;;;;-1.52;97.67;92697.25;1068222;55;20172;-83
2020/12/25 00:35:32;;;;;;;;;;;;;;;-1.49;97.79;92698.44;1066000;55;20173;-82
2020/12/25 00:36:40;;;;;;;;;;;;;;;-1.55;97.41;92697.19;1061871;56;20246;-83
2020/12/25 00:37:40;;;;;;;;;;;;;;;-1.49;97.12;92692.41;1064316;55;20193;-82
2020/12/25 00:38:41;;;;;;;;;;;;;;;-1.41;97.44;92688.81;1066076;55;20157;-83
2020/12/25 00:39:41;;;;;;;;;;;;;;;-1.47;97.92;92698.06;1063896;55;20161;-85
2020/12/25 00:40:43;;;;;;;;;;;;;;;-1.58;97.64;92696.03;1061782;56;20681;-86
2020/12/25 00:41:44;;;;;;;;;;;;;;;-1.54;97.11;92702.09;1065879;55;20698;-81
2020/12/25 00:42:44;;;;;;;;;;;;;;;-1.50;97.20;92696.91;1065882;55;20165;-84
2020/12/25 00:43:45;;;;;;;;;;;;;;;-1.49;97.72;92705.50;1063932;55;20638;-82
2020/12/25 00:44:45;;;;;;;;;;;;;;;-1.54;97.68;92696.09;1061729;56;20174;-83
2020/12/25 00:45:46;;;;;;;;;;;;;;;-1.51;97.66;92698.00;1063687;55;20576;-83
2020/12/25 00:46:47;;;;;;;;;;;;;;;-1.53;96.74;92711.47;1063824;55;20186;-83
2020/12/25 00:47:48;;;;;;;;;;;;;;;-1.58;97.75;92700.50;1066006;55;20681;-82
2020/12/25 00:48:48;;;;;;;;;;;;;;;-1.57;98.11;92700.16;1066024;55;20168;-83
2020/12/25 00:49:49;;;;;;;;;;;;;;;-1.48;98.87;92705.19;1061722;56;20176;-84
2020/12/25 00:50:49;;;;;;;;;;;;;;;-1.53;97.49;92703.62;1061564;56;20138;-82
2020/12/25 00:51:50;;;;;;;;;;;;;;;-1.43;97.80;92699.66;1063786;55;20567;-81
2020/12/25 00:52:50;;;;;;;;;;;;;;;-1.45;97.50;92701.09;1066057;55;20250;-83
2020/12/25 00:53:51;;;;;;;;;;;;;;;-1.45;96.93;92703.72;1065889;55;20150;-83
2020/12/25 00:54:53;;;;;;;;;;;;;;;-1.50;97.23;92694.28;1063942;55;20643;-83
2020/12/25 00:55:54;;;;;;;;;;;;;;;-1.52;97.46;92699.87;1061745;56;20162;-82
2020/12/25 00:56:54;;;;;;;;;;;;;;;-1.60;98.22;92702.72;1061721;56;20167;-83
2020/12/25 00:57:55;;;;;;;;;;;;;;;-1.46;98.45;92707.44;1063928;55;20626;-83
2020/12/25 00:58:55;;;;;;;;;;;;;;;-1.55;98.02;92700.56;1061636;56;20165;-83
2020/12/25 00:59:56;;;;;;;;;;;;;;;-1.52;97.33;92701.75;1061766;56;20181;-82
2020/12/25 01:00:56;;;;;;;;;;;;;;;-1.51;97.74;92698.00;1063921;55;20200;-83
2020/12/25 01:01:57;;;;;;;;;;;;;;;-1.48;97.45;92699.19;1063753;55;20149;-84
2020/12/25 01:02:57;;;;;;;;;;;;;;;-1.50;96.54;92706.63;1066026;55;20231;-83
2020/12/25 01:03:58;;;;;;;;;;;;;;;-1.50;96.47;92710.00;1068323;55;20192;-83
2020/12/25 01:04:58;;;;;;;;;;;;;;;-1.44;96.76;92707.87;1065992;55;20184;-84
2020/12/25 01:05:59;;;;;;;;;;;;;;;-1.58;97.45;92708.38;1061518;56;20251;-84
2020/12/25 01:06:59;;;;;;;;;;;;;;;-1.54;98.09;92712.59;1061596;56;20155;-81
2020/12/25 01:08:00;;;;;;;;;;;;;;;-1.51;97.45;92711.12;1065950;55;20162;-83
2020/12/25 01:09:01;;;;;;;;;;;;;;;-1.53;97.06;92714.09;1066057;55;20208;-82
2020/12/25 01:10:03;;;;;;;;;;;;;;;-1.50;96.58;92714.50;1061695;56;20678;-82
2020/12/25 01:11:05;;;;;;;;;;;;;;;-1.50;95.89;92711.88;1063993;55;20674;-83
2020/12/25 01:12:05;;;;;;;;;;;;;;;-1.52;96.69;92707.75;1066093;55;20153;-82
2020/12/25 01:13:07;;;;;;;;;;;;;;;-1.49;97.35;92713.38;1061554;56;20658;-83
2020/12/25 01:14:08;;;;;;;;;;;;;;;-1.55;97.09;92716.28;1061712;56;20162;-82
2020/12/25 01:15:08;;;;;;;;;;;;;;;-1.63;97.79;92719.91;1061635;56;20181;-83
2020/12/25 01:16:14;;;;;;;;;;;;;;;-1.54;97.93;92711.81;1063625;55;20189;-83
2020/12/25 01:17:15;;;;;;;;;;;;;;;-1.52;97.86;92720.09;1065826;55;20154;-83
2020/12/25 01:18:16;;;;;;;;;;;;;;;-1.52;97.81;92715.59;1061648;56;20150;-82
2020/12/25 01:19:17;;;;;;;;;;;;;;;-1.54;96.84;92725.69;1061598;56;20221;-84
2020/12/25 01:20:19;;;;;;;;;;;;;;;-1.49;96.04;92724.66;1061828;55;20163;-83
2020/12/25 01:21:19;;;;;;;;;;;;;;;-1.55;97.38;92724.16;1066046;55;20674;-83
2020/12/25 01:22:21;;;;;;;;;;;;;;;-1.55;96.99;92726.78;1065990;55;20169;-82
2020/12/25 01:23:22;;;;;;;;;;;;;;;-1.53;97.06;92732.44;1063866;55;20193;-85
2020/12/25 01:24:25;;;;;;;;;;;;;;;-1.53;96.70;92735.06;1066017;55;20165;-82
2020/12/25 01:25:26;;;;;;;;;;;;;;;-1.50;97.22;92732.84;1065806;55;20200;-82
2020/12/25 01:26:26;;;;;;;;;;;;;;;-1.50;97.21;92738.06;1063635;55;20174;-83
2020/12/25 01:27:27;;;;;;;;;;;;;;;-1.52;97.38;92735.81;1065851;55;20161;-83
2020/12/25 01:28:27;;;;;;;;;;;;;;;-1.43;97.57;92743.44;1063736;55;20612;-82
2020/12/25 01:29:28;;;;;;;;;;;;;;;-1.46;97.77;92752.75;1063747;55;20181;-81
2020/12/25 01:30:28;;;;;;;;;;;;;;;-1.47;97.77;92748.62;1065915;55;20209;-85
2020/12/25 01:31:29;;;;;;;;;;;;;;;-1.41;97.75;92749.09;1065924;55;20153;-82
2020/12/25 01:32:34;;;;;;;;;;;;;;;-1.40;97.21;92745.37;1063858;55;20162;-82
2020/12/25 01:33:35;;;;;;;;;;;;;;;-1.33;97.02;92748.09;1061846;56;20592;-82
2020/12/25 01:34:35;;;;;;;;;;;;;;;-1.35;97.00;92755.56;1061642;56;20206;-84
2020/12/25 01:35:36;;;;;;;;;;;;;;;-1.36;97.52;92751.41;1063739;55;20162;-82
2020/12/25 01:36:37;;;;;;;;;;;;;;;-1.34;97.20;92757.09;1063669;55;20262;-83
2020/12/25 01:37:37;;;;;;;;;;;;;;;-1.38;97.03;92762.25;1063756;55;20228;-82
2020/12/25 01:38:38;;;;;;;;;;;;;;;-1.32;95.58;92767.97;1061533;56;20185;-82
2020/12/25 01:39:38;;;;;;;;;;;;;;;-1.41;96.24;92762.94;1065916;55;20162;-83
2020/12/25 01:40:39;;;;;;;;;;;;;;;-1.40;95.93;92769.72;1065582;55;20180;-84
2020/12/25 01:41:39;;;;;;;;;;;;;;;-1.44;96.68;92770.78;1065976;55;20620;-82
2020/12/25 01:42:39;;;;;;;;;;;;;;;-1.41;97.07;92773.44;1068332;55;20662;-83
2020/12/25 01:43:40;;;;;;;;;;;;;;;-1.38;96.52;92780.59;1063669;55;20636;-83
2020/12/25 01:44:40;;;;;;;;;;;;;;;-1.35;96.56;92781.78;1061511;56;20174;-85
2020/12/25 01:45:41;;;;;;;;;;;;;;;-1.32;97.08;92781.84;1061574;56;20154;-83
2020/12/25 01:46:41;;;;;;;;;;;;;;;-1.37;97.00;92783.97;1061701;56;20189;-84
2020/12/25 01:47:42;;;;;;;;;;;;;;;-1.33;97.40;92784.81;1061585;56;20179;-82
2020/12/25 01:48:43;;;;;;;;;;;;;;;-1.27;97.00;92788.66;1063769;55;20638;-82
2020/12/25 01:49:44;;;;;;;;;;;;;;;-1.29;95.80;92788.25;1068386;55;20176;-83
2020/12/25 01:50:45;;;;;;;;;;;;;;;-1.22;96.59;92795.50;1063692;55;20177;-85
2020/12/25 01:51:46;;;;;;;;;;;;;;;-1.28;95.92;92787.88;1063558;55;20162;-83
2020/12/25 01:52:47;;;;;;;;;;;;;;;-1.30;96.68;92795.34;1063656;55;20259;-82
2020/12/25 01:53:47;;;;;;;;;;;;;;;-1.32;96.89;92787.09;1061550;55;20659;-81
2020/12/25 01:54:48;;;;;;;;;;;;;;;-1.27;97.22;92797.28;1061503;56;20259;-81
2020/12/25 01:55:50;;;;;;;;;;;;;;;-1.36;96.48;92793.34;1063775;55;20635;-82
2020/12/25 01:56:51;;;;;;;;;;;;;;;-1.31;96.42;92806.19;1068413;55;20165;-84
2020/12/25 01:57:54;;;;;;;;;;;;;;;-1.30;96.63;92797.97;1065947;55;20197;-84
2020/12/25 01:58:55;;;;;;;;;;;;;;;-1.29;97.41;92801.34;1066000;55;20191;-82
2020/12/25 01:59:56;;;;;;;;;;;;;;;-1.25;97.82;92806.66;1063617;55;20211;-83
2020/12/25 02:00:57;;;;;;;;;;;;;;;-1.26;96.82;92800.66;1063741;55;20177;-85
2020/12/25 02:01:58;;;;;;;;;;;;;;;-1.26;97.70;92800.66;1065730;55;20724;-83
2020/12/25 02:02:58;;;;;;;;;;;;;;;-1.20;97.64;92809.75;1061561;56;20218;-84
2020/12/25 02:04:00;;;;;;;;;;;;;;;-1.23;97.71;92804.44;1061595;56;20248;-81
2020/12/25 02:05:00;;;;;;;;;;;;;;;-1.28;97.84;92803.63;1061427;56;20185;-83
2020/12/25 02:06:00;;;;;;;;;;;;;;;-1.20;98.06;92807.13;1063752;55;20181;-84
2020/12/25 02:07:01;;;;;;;;;;;;;;;-1.19;98.12;92803.38;1061650;56;20166;-83
2020/12/25 02:08:03;;;;;;;;;;;;;;;-1.20;97.59;92809.75;1063788;55;20307;-81
2020/12/25 02:09:03;;;;;;;;;;;;;;;-1.18;97.26;92810.16;1065968;55;20202;-83
2020/12/25 02:10:04;;;;;;;;;;;;;;;-1.25;97.16;92807.41;1063648;55;20221;-82
2020/12/25 02:11:05;;;;;;;;;;;;;;;-1.21;97.63;92812.72;1061489;56;20332;-83
2020/12/25 02:12:06;;;;;;;;;;;;;;;-1.24;97.66;92808.16;1059451;56;20155;-82
2020/12/25 02:13:06;;;;;;;;;;;;;;;-1.21;97.61;92816.09;1061496;56;20658;-83
2020/12/25 02:14:08;;;;;;;;;;;;;;;-1.21;97.43;92807.47;1063789;55;20216;-83
2020/12/25 02:15:09;;;;;;;;;;;;;;;-1.25;96.98;92817.91;1063588;55;20161;-83
2020/12/25 02:16:09;;;;;;;;;;;;;;;-1.19;97.21;92803.38;1063670;55;20192;-83
2020/12/25 02:17:10;;;;;;;;;;;;;;;-1.22;96.80;92817.22;1061411;56;20380;-83
2020/12/25 02:18:10;;;;;;;;;;;;;;;-1.22;97.18;92814.59;1063625;55;20173;-83
2020/12/25 02:19:11;;;;;;;;;;;;;;;-1.21;96.97;92816.09;1065874;55;20610;-81
2020/12/25 02:20:11;;;;;;;;;;;;;;;-1.27;97.16;92809.66;1061496;56;20150;-84
2020/12/25 02:21:12;;;;;;;;;;;;;;;-1.21;97.88;92823.22;1061425;56;20209;-83
2020/12/25 02:22:13;;;;;;;;;;;;;;;-1.23;96.64;92818.31;1061626;56;20246;-82
2020/12/25 02:23:13;;;;;;;;;;;;;;;-1.25;97.81;92817.91;1061515;56;20154;-82
2020/12/25 02:24:14;;;;;;;;;;;;;;;-1.23;97.60;92823.53;1063623;55;20255;-83
2020/12/25 02:25:15;;;;;;;;;;;;;;;-1.20;96.73;92822.84;1065934;55;20327;-82
2020/12/25 02:26:17;;;;;;;;;;;;;;;-1.23;98.18;92826.16;1063814;55;20158;-82
2020/12/25 02:27:18;;;;;;;;;;;;;;;-1.22;97.94;92827.72;1065902;55;20165;-83
2020/12/25 02:28:18;;;;;;;;;;;;;;;-1.19;98.54;92827.00;1065727;55;20154;-83
2020/12/25 02:29:19;;;;;;;;;;;;;;;-1.18;99.18;92822.53;1063680;55;20181;-83
2020/12/25 02:30:20;;;;;;;;;;;;;;;-1.24;99.28;92821.28;1061434;56;20181;-83
2020/12/25 02:31:20;;;;;;;;;;;;;;;-1.24;99.57;92832.53;1063719;55;20189;-83
2020/12/25 02:32:21;;;;;;;;;;;;;;;-1.22;98.61;92825.09;1068296;55;20593;-82
2020/12/25 02:33:21;;;;;;;;;;;;;;;-1.22;99.13;92825.09;1068004;55;20173;-83
2020/12/25 02:34:22;;;;;;;;;;;;;;;-1.17;98.19;92826.66;1065909;55;20164;-83
2020/12/25 02:35:22;;;;;;;;;;;;;;;-1.17;98.54;92829.28;1061496;56;20706;-83
2020/12/25 02:36:23;;;;;;;;;;;;;;;-1.17;98.66;92830.03;1061691;56;20198;-82
2020/12/25 02:37:25;;;;;;;;;;;;;;;-1.11;98.53;92831.25;1065891;55;20157;-82
2020/12/25 02:38:26;;;;;;;;;;;;;;;-1.16;98.58;92834.16;1065742;55;20162;-84
2020/12/25 02:39:26;;;;;;;;;;;;;;;-1.18;98.89;92827.78;1063702;55;20161;-84
2020/12/25 02:40:26;;;;;;;;;;;;;;;-1.21;98.97;92831.09;1063560;56;21174;-82
2020/12/25 02:41:27;;;;;;;;;;;;;;;-1.16;99.17;92836.03;1063692;56;21102;-84
2020/12/25 02:42:27;;;;;;;;;;;;;;;-1.11;98.55;92835.75;1063390;55;20177;-83
2020/12/25 02:43:28;;;;;;;;;;;;;;;-1.10;98.86;92840.66;1061504;56;20162;-82
2020/12/25 02:44:28;;;;;;;;;;;;;;;-1.03;98.71;92837.37;1065822;55;20176;-83
2020/12/25 02:45:29;;;;;;;;;;;;;;;-1.05;98.85;92837.00;1068172;55;20157;-84
2020/12/25 02:46:29;;;;;;;;;;;;;;;-1.11;98.63;92836.50;1067835;55;20633;-82
2020/12/25 02:47:30;;;;;;;;;;;;;;;-1.15;98.90;92840.91;1063524;56;20158;-81
2020/12/25 02:48:30;;;;;;;;;;;;;;;-1.09;98.95;92839.53;1061485;56;20170;-84
2020/12/25 02:49:31;;;;;;;;;;;;;;;-1.10;98.60;92832.00;1063602;56;20188;-83
2020/12/25 02:50:31;;;;;;;;;;;;;;;-1.07;98.85;92839.19;1063686;56;20181;-83
2020/12/25 02:51:32;;;;;;;;;;;;;;;-0.96;98.71;92828.87;1063762;56;20189;-82
2020/12/25 02:52:32;;;;;;;;;;;;;;;-1.00;98.67;92828.06;1065866;55;20185;-83
2020/12/25 02:53:33;;;;;;;;;;;;;;;-0.97;99.14;92833.34;1067806;55;20211;-83
2020/12/25 02:54:33;;;;;;;;;;;;;;;-0.99;98.70;92832.97;1067978;55;20150;-83
2020/12/25 02:55:34;;;;;;;;;;;;;;;-1.10;98.92;92830.16;1063784;56;20162;-82
2020/12/25 02:56:34;;;;;;;;;;;;;;;-1.11;98.98;92836.50;1063539;56;20172;-83
2020/12/25 02:57:34;;;;;;;;;;;;;;;-1.04;99.34;92834.00;1061482;56;20165;-83
2020/12/25 02:58:36;;;;;;;;;;;;;;;-1.07;99.66;92833.94;1063710;55;20165;-86
2020/12/25 02:59:37;;;;;;;;;;;;;;;-1.04;98.64;92841.12;1068026;55;20149;-83
2020/12/25 03:00:37;;;;;;;;;;;;;;;-1.11;98.45;92833.88;1063613;56;20188;-83
2020/12/25 03:01:38;;;;;;;;;;;;;;;-1.02;99.12;92833.66;1059286;56;20158;-82
2020/12/25 03:02:38;;;;;;;;;;;;;;;-1.02;98.87;92837.03;1061299;56;20627;-83
2020/12/25 03:03:40;;;;;;;;;;;;;;;-1.02;98.82;92834.41;1063625;55;20165;-82
2020/12/25 03:04:40;;;;;;;;;;;;;;;-1.00;97.96;92846.44;1061838;56;20158;-84
2020/12/25 03:05:40;;;;;;;;;;;;;;;-1.03;97.92;92842.63;1063918;55;20310;-83
2020/12/25 03:06:42;;;;;;;;;;;;;;;-1.01;98.27;92850.91;1064010;55;20185;-82
2020/12/25 03:07:43;;;;;;;;;;;;;;;-1.04;97.63;92851.63;1059697;56;20726;-83
2020/12/25 03:08:43;;;;;;;;;;;;;;;-1.08;97.77;92848.94;1061805;56;20655;-82
2020/12/25 03:09:44;;;;;;;;;;;;;;;-1.02;97.85;92852.00;1061868;56;20304;-83
2020/12/25 03:10:45;;;;;;;;;;;;;;;-0.99;97.97;92853.94;1062099;56;20189;-83
2020/12/25 03:11:45;;;;;;;;;;;;;;;-0.99;96.99;92847.94;1063964;55;20262;-82
2020/12/25 03:12:46;;;;;;;;;;;;;;;-1.09;97.38;92855.28;1066140;55;20193;-84
2020/12/25 03:13:46;;;;;;;;;;;;;;;-1.02;97.81;92847.53;1063995;55;20181;-82
2020/12/25 03:14:48;;;;;;;;;;;;;;;-1.07;98.36;92858.31;1061745;56;20675;-84
2020/12/25 03:15:48;;;;;;;;;;;;;;;-1.15;98.37;92861.16;1061811;56;20192;-84
2020/12/25 03:16:49;;;;;;;;;;;;;;;-1.11;98.12;92849.63;1066161;55;20162;-83
2020/12/25 03:17:49;;;;;;;;;;;;;;;-1.08;98.34;92861.28;1068187;55;20149;-83
2020/12/25 03:18:50;;;;;;;;;;;;;;;-1.10;97.72;92860.84;1063918;55;20154;-81
2020/12/25 03:19:50;;;;;;;;;;;;;;;-1.13;97.27;92856.31;1064006;55;20169;-84
2020/12/25 03:20:51;;;;;;;;;;;;;;;-1.14;97.70;92852.94;1066129;55;20677;-83
2020/12/25 03:21:52;;;;;;;;;;;;;;;-1.02;98.18;92857.25;1061792;56;20181;-84
2020/12/25 03:22:52;;;;;;;;;;;;;;;-1.09;97.83;92855.28;1061645;56;20177;-82
2020/12/25 03:23:52;;;;;;;;;;;;;;;-1.15;97.27;92854.03;1061845;56;20308;-83
2020/12/25 03:24:53;;;;;;;;;;;;;;;-1.11;97.11;92848.84;1066025;55;21079;-84
2020/12/25 03:25:53;;;;;;;;;;;;;;;-1.23;97.82;92854.25;1063911;55;20288;-83
2020/12/25 03:26:54;;;;;;;;;;;;;;;-1.19;98.52;92852.47;1061862;56;20158;-81
2020/12/25 03:27:54;;;;;;;;;;;;;;;-1.14;97.95;92849.53;1061822;56;20199;-85
2020/12/25 03:28:55;;;;;;;;;;;;;;;-1.04;97.23;92856.84;1064084;55;20150;-83
2020/12/25 03:29:55;;;;;;;;;;;;;;;-1.05;97.39;92853.47;1063924;55;20189;-84
2020/12/25 03:30:56;;;;;;;;;;;;;;;-1.07;97.30;92857.53;1061900;56;20154;-82
2020/12/25 03:31:56;;;;;;;;;;;;;;;-1.12;97.47;92857.84;1061905;56;20154;-84
2020/12/25 03:32:58;;;;;;;;;;;;;;;-1.12;97.83;92855.97;1064064;55;20212;-83
2020/12/25 03:33:58;;;;;;;;;;;;;;;-1.08;97.67;92853.41;1063912;55;20150;-82
2020/12/25 03:34:58;;;;;;;;;;;;;;;-1.06;98.23;92859.06;1059686;56;20249;-82
2020/12/25 03:36:00;;;;;;;;;;;;;;;-1.09;97.08;92850.03;1064027;55;20161;-82
2020/12/25 03:37:00;;;;;;;;;;;;;;;-1.06;97.29;92854.56;1066028;55;20165;-82
2020/12/25 03:38:00;;;;;;;;;;;;;;;-1.10;96.85;92856.41;1063963;55;20165;-84
2020/12/25 03:39:01;;;;;;;;;;;;;;;-1.10;97.57;92856.41;1064036;55;20189;-83
2020/12/25 03:40:03;;;;;;;;;;;;;;;-1.15;98.16;92859.28;1061829;56;20206;-82
2020/12/25 03:41:03;;;;;;;;;;;;;;;-1.09;98.03;92855.28;1066285;55;20161;-83
2020/12/25 03:42:04;;;;;;;;;;;;;;;-1.12;97.45;92863.09;1066032;55;20173;-83
2020/12/25 03:43:04;;;;;;;;;;;;;;;-1.11;97.81;92861.97;1061930;56;20162;-84
2020/12/25 03:44:05;;;;;;;;;;;;;;;-1.20;98.22;92854.31;1066066;55;20266;-82
2020/12/25 03:45:05;;;;;;;;;;;;;;;-1.19;98.19;92862.94;1061726;56;20208;-83
2020/12/25 03:46:07;;;;;;;;;;;;;;;-1.14;98.77;92863.44;1059869;56;20189;-82
2020/12/25 03:47:07;;;;;;;;;;;;;;;-1.19;98.57;92863.69;1061733;56;20600;-83
2020/12/25 03:48:08;;;;;;;;;;;;;;;-1.18;98.66;92862.62;1063965;55;20177;-83
2020/12/25 03:49:08;;;;;;;;;;;;;;;-1.12;98.97;92863.84;1066094;55;20240;-84
2020/12/25 03:50:09;;;;;;;;;;;;;;;-1.11;98.32;92857.47;1066008;55;20157;-82
2020/12/25 03:51:10;;;;;;;;;;;;;;;-1.10;97.85;92853.00;1068220;55;20156;-81
2020/12/25 03:52:10;;;;;;;;;;;;;;;-1.12;97.30;92858.59;1068303;55;20169;-82
2020/12/25 03:53:11;;;;;;;;;;;;;;;-1.07;97.04;92860.16;1066207;55;20208;-82
2020/12/25 03:54:11;;;;;;;;;;;;;;;-1.12;96.94;92858.59;1063981;55;20168;-82
2020/12/25 03:55:12;;;;;;;;;;;;;;;-1.15;97.34;92861.91;1059751;56;20158;-83
2020/12/25 03:56:15;;;;;;;;;;;;;;;-1.06;97.71;92862.44;1064060;55;20166;-82
2020/12/25 03:57:16;;;;;;;;;;;;;;;-1.08;98.31;92864.66;1068174;55;20173;-83
2020/12/25 03:58:16;;;;;;;;;;;;;;;-1.10;98.69;92868.72;1066082;55;20162;-83
2020/12/25 03:59:17;;;;;;;;;;;;;;;-1.11;98.31;92862.72;1063794;55;20235;-81
2020/12/25 04:00:17;;;;;;;;;;;;;;;-1.16;98.68;92862.25;1061732;56;20158;-81
2020/12/25 04:01:18;;;;;;;;;;;;;;;-1.12;98.55;92855.97;1061826;56;20163;-84
2020/12/25 04:02:18;;;;;;;;;;;;;;;-1.18;98.23;92867.84;1063733;55;20649;-82
2020/12/25 04:03:19;;;;;;;;;;;;;;;-1.08;99.03;92871.78;1063764;55;20254;-82
2020/12/25 04:04:19;;;;;;;;;;;;;;;-1.00;99.02;92867.41;1066026;55;20164;-84
2020/12/25 04:05:19;;;;;;;;;;;;;;;-1.02;98.98;92867.75;1065996;55;20153;-83
2020/12/25 04:06:20;;;;;;;;;;;;;;;-1.02;98.43;92873.00;1066007;55;20154;-82
2020/12/25 04:07:20;;;;;;;;;;;;;;;-1.19;97.97;92874.19;1063869;55;20224;-84
2020/12/25 04:08:21;;;;;;;;;;;;;;;-1.15;97.63;92877.62;1063701;55;20193;-83
2020/12/25 04:09:22;;;;;;;;;;;;;;;-1.10;96.94;92876.59;1064015;55;20169;-81
2020/12/25 04:10:22;;;;;;;;;;;;;;;-1.11;97.04;92878.47;1066082;55;20149;-84
2020/12/25 04:11:23;;;;;;;;;;;;;;;-1.11;97.08;92882.94;1066103;55;20150;-82
2020/12/25 04:12:23;;;;;;;;;;;;;;;-1.00;97.69;92877.91;1066060;55;20154;-82
2020/12/25 04:13:24;;;;;;;;;;;;;;;-1.08;97.76;92880.41;1068157;55;20149;-82
2020/12/25 04:14:25;;;;;;;;;;;;;;;-1.06;97.85;92882.66;1068208;55;20180;-84
2020/12/25 04:15:26;;;;;;;;;;;;;;;-1.04;98.28;92883.09;1063794;55;20238;-81
2020/12/25 04:16:29;;;;;;;;;;;;;;;-1.03;98.29;92882.72;1061783;56;20169;-81
2020/12/25 04:17:29;;;;;;;;;;;;;;;-1.00;97.43;92877.91;1061731;55;20170;-84
2020/12/25 04:18:30;;;;;;;;;;;;;;;-0.97;97.97;92872.69;1066053;55;20648;-82
2020/12/25 04:19:32;;;;;;;;;;;;;;;-0.98;97.77;92884.31;1066037;55;20286;-85
2020/12/25 04:20:33;;;;;;;;;;;;;;;-1.02;98.22;92875.63;1066239;55;20176;-81
2020/12/25 04:21:35;;;;;;;;;;;;;;;-0.96;98.67;92874.25;1066072;55;20223;-82
2020/12/25 04:22:36;;;;;;;;;;;;;;;-0.98;98.10;92875.69;1061772;55;20743;-83
2020/12/25 04:23:36;;;;;;;;;;;;;;;-1.00;98.46;92877.91;1061733;56;20162;-83
2020/12/25 04:24:36;;;;;;;;;;;;;;;-0.96;97.19;92879.50;1063926;55;20137;-81
2020/12/25 04:25:37;;;;;;;;;;;;;;;-1.04;97.75;92881.22;1063932;55;20184;-81
2020/12/25 04:26:38;;;;;;;;;;;;;;;-1.01;98.52;92877.13;1061947;55;20193;-82
2020/12/25 04:27:40;;;;;;;;;;;;;;;-0.90;98.38;92879.94;1064055;55;20750;-84
2020/12/25 04:28:40;;;;;;;;;;;;;;;-0.96;98.33;92884.72;1063925;55;20215;-83
2020/12/25 04:29:40;;;;;;;;;;;;;;;-0.97;97.11;92890.31;1066135;55;20169;-84
2020/12/25 04:30:41;;;;;;;;;;;;;;;-0.98;97.15;92883.56;1068536;55;20207;-83
2020/12/25 04:31:41;;;;;;;;;;;;;;;-0.92;97.01;92890.03;1066080;55;20157;-85
2020/12/25 04:32:42;;;;;;;;;;;;;;;-0.99;97.03;92888.03;1061878;56;20158;-83
2020/12/25 04:33:42;;;;;;;;;;;;;;;-1.00;96.83;92885.78;1061845;56;20151;-82
2020/12/25 04:34:43;;;;;;;;;;;;;;;-1.04;96.74;92886.47;1064019;55;20150;-82
2020/12/25 04:35:43;;;;;;;;;;;;;;;-1.05;97.56;92884.94;1061833;56;20251;-83
2020/12/25 04:36:44;;;;;;;;;;;;;;;-1.05;97.86;92890.19;1061902;56;20146;-81
2020/12/25 04:37:46;;;;;;;;;;;;;;;-0.99;97.73;92887.28;1063881;55;20150;-82
2020/12/25 04:38:46;;;;;;;;;;;;;;;-1.02;97.87;92883.47;1066326;55;20310;-82
2020/12/25 04:39:47;;;;;;;;;;;;;;;-1.03;96.82;92887.97;1066022;55;20634;-82
2020/12/25 04:40:47;;;;;;;;;;;;;;;-1.08;97.16;92896.13;1063994;55;20165;-82
2020/12/25 04:41:48;;;;;;;;;;;;;;;-1.08;97.52;92888.25;1061684;56;20638;-82
2020/12/25 04:42:51;;;;;;;;;;;;;;;-1.07;97.99;92892.41;1059398;56;20262;-84
2020/12/25 04:43:52;;;;;;;;;;;;;;;-1.11;98.41;92894.19;1064210;55;20201;-82
2020/12/25 04:44:53;;;;;;;;;;;;;;;-1.06;98.58;92890.53;1064097;55;20266;-85
2020/12/25 04:45:53;;;;;;;;;;;;;;;-1.07;98.55;92894.25;1062000;56;20181;-83
2020/12/25 04:46:58;;;;;;;;;;;;;;;-0.96;97.59;92892.59;1059689;56;20698;-83
2020/12/25 04:47:59;;;;;;;;;;;;;;;-1.00;96.97;92893.66;1059991;56;20162;-81
2020/12/25 04:49:00;;;;;;;;;;;;;;;-0.94;96.32;92889.63;1064048;55;20575;-82
2020/12/25 04:50:04;;;;;;;;;;;;;;;-0.95;96.02;92891.50;1059762;56;20154;-82
2020/12/25 04:51:05;;;;;;;;;;;;;;;-1.06;96.90;92899.16;1062131;55;20639;-83
2020/12/25 04:52:06;;;;;;;;;;;;;;;-1.01;97.08;92900.72;1063990;55;20737;-84
2020/12/25 04:53:09;;;;;;;;;;;;;;;-0.93;96.74;92909.50;1061807;56;20220;-84
2020/12/25 04:54:10;;;;;;;;;;;;;;;-0.90;96.15;92901.69;1061839;56;20154;-81
2020/12/25 04:55:10;;;;;;;;;;;;;;;-0.97;96.52;92903.44;1063900;55;20165;-84
2020/12/25 04:56:10;;;;;;;;;;;;;;;-0.94;97.16;92906.13;1061845;56;20706;-83
2020/12/25 04:57:11;;;;;;;;;;;;;;;-0.93;97.23;92906.88;1061972;56;20663;-82
2020/12/25 04:58:11;;;;;;;;;;;;;;;-0.98;96.46;92910.53;1061941;56;20185;-82
2020/12/25 04:59:12;;;;;;;;;;;;;;;-0.96;96.31;92905.72;1064169;55;20181;-88
2020/12/25 05:00:21;;;;;;;;;;;;;;;-0.92;96.32;92908.38;1064131;55;20161;-83
2020/12/25 05:01:22;;;;;;;;;;;;;;;-0.95;96.79;92909.09;1064478;55;20295;-82
2020/12/25 05:02:24;;;;;;;;;;;;;;;-1.01;97.60;92903.34;1066257;55;20183;-85
2020/12/25 05:03:24;;;;;;;;;;;;;;;-0.98;98.01;92901.91;1061890;56;20166;-83
2020/12/25 05:04:25;;;;;;;;;;;;;;;-0.95;97.21;92909.84;1061840;56;20162;-84
2020/12/25 05:05:30;;;;;;;;;;;;;;;-0.94;97.01;92915.84;1061776;56;20177;-87
2020/12/25 05:06:30;;;;;;;;;;;;;;;-0.97;97.89;92903.44;1061835;56;20185;-84
2020/12/25 05:07:32;;;;;;;;;;;;;;;-1.02;97.49;92909.72;1061787;56;20201;-80
2020/12/25 05:08:39;;;;;;;;;;;;;;;-1.10;97.09;92908.84;1064092;55;20228;-82
2020/12/25 05:09:41;;;;;;;;;;;;;;;-1.03;96.98;92906.34;1061816;56;20966;-83
2020/12/25 05:10:47;;;;;;;;;;;;;;;-1.04;96.64;92907.44;1060159;56;20193;-83
2020/12/25 05:11:51;;;;;;;;;;;;;;;-1.02;96.79;92917.59;1059917;56;20159;-83
2020/12/25 05:12:52;;;;;;;;;;;;;;;-1.00;96.06;92904.91;1060076;56;20170;-82
2020/12/25 05:13:53;;;;;;;;;;;;;;;-1.15;96.17;92911.72;1064040;55;20634;-83
2020/12/25 05:14:54;;;;;;;;;;;;;;;-1.11;97.72;92907.31;1061840;56;21052;-83
2020/12/25 05:15:54;;;;;;;;;;;;;;;-1.05;98.52;92908.56;1057514;56;20155;-83
2020/12/25 05:16:56;;;;;;;;;;;;;;;-1.04;98.41;92920.56;1061713;56;20244;-82
2020/12/25 05:17:58;;;;;;;;;;;;;;;-1.02;98.14;92915.72;1064155;55;20213;-82